sensor_id;sensor_type;location;lat;lon;timestamp;P1;durP1;ratioP1;P2;durP2;ratioP2
13571;SDS011;6857;53.484;10.216;2022-12-18T00:01:20;18.97;;;10.83;;
13571;SDS011;6857;53.484;10.216;2022-12-18T00:03:46;23.57;;;11.57;;
13571;SDS011;6857;53.484;10.216;2022-12-18T00:06:12;19.63;;;11.80;;
13571;SDS011;6857;53.484;10.216;2022-12-18T00:08:39;22.40;;;12.17;;
13571;SDS011;6857;53.484;10.216;2022-12-18T00:11:11;20.13;;;11.07;;
13571;SDS011;6857;53.484;10.216;2022-12-18T00:13:37;20.20;;;11.17;;
13571;SDS011;6857;53.484;10.216;2022-12-18T00:16:04;23.23;;;11.63;;
13571;SDS011;6857;53.484;10.216;2022-12-18T00:18:30;20.77;;;10.97;;
13571;SDS011;6857;53.484;10.216;2022-12-18T00:21:00;25.00;;;11.37;;
13571;SDS011;6857;53.484;10.216;2022-12-18T00:23:27;19.20;;;11.53;;
13571;SDS011;6857;53.484;10.216;2022-12-18T00:25:53;19.03;;;10.90;;
13571;SDS011;6857;53.484;10.216;2022-12-18T00:28:19;21.37;;;10.60;;
13571;SDS011;6857;53.484;10.216;2022-12-18T00:30:45;19.53;;;10.93;;
13571;SDS011;6857;53.484;10.216;2022-12-18T00:33:11;18.80;;;10.07;;
13571;SDS011;6857;53.484;10.216;2022-12-18T00:35:37;18.43;;;9.63;;
13571;SDS011;6857;53.484;10.216;2022-12-18T00:38:03;22.93;;;11.10;;
13571;SDS011;6857;53.484;10.216;2022-12-18T00:40:31;17.90;;;10.13;;
13571;SDS011;6857;53.484;10.216;2022-12-18T00:42:57;22.00;;;9.70;;
13571;SDS011;6857;53.484;10.216;2022-12-18T00:45:27;16.43;;;10.03;;
13571;SDS011;6857;53.484;10.216;2022-12-18T00:47:53;16.40;;;9.67;;
13571;SDS011;6857;53.484;10.216;2022-12-18T00:50:20;16.60;;;9.67;;
13571;SDS011;6857;53.484;10.216;2022-12-18T00:52:46;17.40;;;9.67;;
13571;SDS011;6857;53.484;10.216;2022-12-18T00:55:12;14.80;;;9.10;;
13571;SDS011;6857;53.484;10.216;2022-12-18T00:57:38;20.43;;;9.87;;
13571;SDS011;6857;53.484;10.216;2022-12-18T01:00:06;18.40;;;10.03;;
13571;SDS011;6857;53.484;10.216;2022-12-18T01:02:32;18.30;;;9.80;;
13571;SDS011;6857;53.484;10.216;2022-12-18T01:04:58;17.37;;;9.43;;
13571;SDS011;6857;53.484;10.216;2022-12-18T01:07:24;16.63;;;9.87;;
13571;SDS011;6857;53.484;10.216;2022-12-18T01:09:50;15.63;;;8.63;;
13571;SDS011;6857;53.484;10.216;2022-12-18T01:12:16;14.50;;;8.73;;
13571;SDS011;6857;53.484;10.216;2022-12-18T01:14:42;16.53;;;9.60;;
13571;SDS011;6857;53.484;10.216;2022-12-18T01:17:08;17.23;;;10.13;;
13571;SDS011;6857;53.484;10.216;2022-12-18T01:19:34;20.27;;;8.80;;
13571;SDS011;6857;53.484;10.216;2022-12-18T01:22:00;17.80;;;9.87;;
13571;SDS011;6857;53.484;10.216;2022-12-18T01:24:26;20.73;;;9.23;;
13571;SDS011;6857;53.484;10.216;2022-12-18T01:26:52;17.73;;;9.17;;
13571;SDS011;6857;53.484;10.216;2022-12-18T01:29:18;14.80;;;8.63;;
13571;SDS011;6857;53.484;10.216;2022-12-18T01:31:44;18.37;;;9.53;;
13571;SDS011;6857;53.484;10.216;2022-12-18T01:34:10;17.20;;;9.30;;
13571;SDS011;6857;53.484;10.216;2022-12-18T01:36:36;19.00;;;9.23;;
13571;SDS011;6857;53.484;10.216;2022-12-18T01:39:04;15.33;;;9.03;;
13571;SDS011;6857;53.484;10.216;2022-12-18T01:41:31;19.40;;;8.83;;
13571;SDS011;6857;53.484;10.216;2022-12-18T01:47:01;16.70;;;8.70;;
13571;SDS011;6857;53.484;10.216;2022-12-18T01:49:27;16.73;;;9.07;;
13571;SDS011;6857;53.484;10.216;2022-12-18T01:51:53;13.60;;;7.73;;
13571;SDS011;6857;53.484;10.216;2022-12-18T01:54:19;18.00;;;9.20;;
13571;SDS011;6857;53.484;10.216;2022-12-18T01:56:45;15.00;;;8.13;;
13571;SDS011;6857;53.484;10.216;2022-12-18T01:59:11;13.80;;;8.90;;
13571;SDS011;6857;53.484;10.216;2022-12-18T02:01:38;15.40;;;8.27;;
13571;SDS011;6857;53.484;10.216;2022-12-18T02:04:21;15.47;;;8.57;;
13571;SDS011;6857;53.484;10.216;2022-12-18T02:06:47;15.97;;;8.40;;
13571;SDS011;6857;53.484;10.216;2022-12-18T02:09:16;17.23;;;8.90;;
13571;SDS011;6857;53.484;10.216;2022-12-18T02:11:49;16.37;;;8.40;;
13571;SDS011;6857;53.484;10.216;2022-12-18T02:17:11;18.37;;;8.47;;
13571;SDS011;6857;53.484;10.216;2022-12-18T02:22:15;16.90;;;8.67;;
13571;SDS011;6857;53.484;10.216;2022-12-18T02:27:09;17.67;;;8.47;;
13571;SDS011;6857;53.484;10.216;2022-12-18T02:29:41;16.73;;;8.63;;
13571;SDS011;6857;53.484;10.216;2022-12-18T02:32:12;16.03;;;7.90;;
13571;SDS011;6857;53.484;10.216;2022-12-18T02:34:40;16.07;;;8.00;;
13571;SDS011;6857;53.484;10.216;2022-12-18T02:37:07;13.83;;;8.17;;
13571;SDS011;6857;53.484;10.216;2022-12-18T02:39:34;14.77;;;8.47;;
13571;SDS011;6857;53.484;10.216;2022-12-18T02:42:01;18.03;;;9.27;;
13571;SDS011;6857;53.484;10.216;2022-12-18T02:44:32;18.23;;;8.10;;
13571;SDS011;6857;53.484;10.216;2022-12-18T02:46:58;15.30;;;9.00;;
13571;SDS011;6857;53.484;10.216;2022-12-18T02:51:55;15.07;;;8.03;;
13571;SDS011;6857;53.484;10.216;2022-12-18T02:56:51;19.83;;;8.33;;
13571;SDS011;6857;53.484;10.216;2022-12-18T02:59:21;15.53;;;8.53;;
13571;SDS011;6857;53.484;10.216;2022-12-18T03:04:20;15.57;;;8.97;;
13571;SDS011;6857;53.484;10.216;2022-12-18T03:06:49;12.70;;;7.97;;
13571;SDS011;6857;53.484;10.216;2022-12-18T03:09:39;16.30;;;8.73;;
13571;SDS011;6857;53.484;10.216;2022-12-18T03:12:09;13.73;;;8.60;;
13571;SDS011;6857;53.484;10.216;2022-12-18T03:15:10;14.60;;;8.83;;
13571;SDS011;6857;53.484;10.216;2022-12-18T03:17:34;18.57;;;7.83;;
13571;SDS011;6857;53.484;10.216;2022-12-18T03:20:06;14.07;;;8.40;;
13571;SDS011;6857;53.484;10.216;2022-12-18T03:22:33;14.80;;;8.33;;
13571;SDS011;6857;53.484;10.216;2022-12-18T03:25:00;16.13;;;8.00;;
13571;SDS011;6857;53.484;10.216;2022-12-18T03:27:27;17.43;;;8.53;;
13571;SDS011;6857;53.484;10.216;2022-12-18T03:30:04;12.47;;;8.10;;
13571;SDS011;6857;53.484;10.216;2022-12-18T03:35:21;17.13;;;8.27;;
13571;SDS011;6857;53.484;10.216;2022-12-18T03:37:47;15.30;;;8.20;;
13571;SDS011;6857;53.484;10.216;2022-12-18T03:40:14;20.57;;;9.30;;
13571;SDS011;6857;53.484;10.216;2022-12-18T03:42:47;17.23;;;8.83;;
13571;SDS011;6857;53.484;10.216;2022-12-18T03:45:26;15.33;;;8.13;;
13571;SDS011;6857;53.484;10.216;2022-12-18T03:50:22;15.90;;;8.47;;
13571;SDS011;6857;53.484;10.216;2022-12-18T03:52:59;17.63;;;9.70;;
13571;SDS011;6857;53.484;10.216;2022-12-18T03:55:25;21.43;;;8.80;;
13571;SDS011;6857;53.484;10.216;2022-12-18T03:57:53;17.80;;;9.20;;
13571;SDS011;6857;53.484;10.216;2022-12-18T04:00:20;15.70;;;9.03;;
13571;SDS011;6857;53.484;10.216;2022-12-18T04:02:50;15.17;;;8.57;;
13571;SDS011;6857;53.484;10.216;2022-12-18T04:05:17;14.90;;;8.20;;
13571;SDS011;6857;53.484;10.216;2022-12-18T04:07:45;18.07;;;9.07;;
13571;SDS011;6857;53.484;10.216;2022-12-18T04:10:11;18.40;;;9.77;;
13571;SDS011;6857;53.484;10.216;2022-12-18T04:12:38;15.57;;;8.70;;
13571;SDS011;6857;53.484;10.216;2022-12-18T04:15:04;15.53;;;9.53;;
13571;SDS011;6857;53.484;10.216;2022-12-18T04:17:30;14.67;;;9.30;;
13571;SDS011;6857;53.484;10.216;2022-12-18T04:19:56;22.20;;;9.77;;
13571;SDS011;6857;53.484;10.216;2022-12-18T04:22:22;22.43;;;9.87;;
13571;SDS011;6857;53.484;10.216;2022-12-18T04:24:48;20.17;;;10.73;;
13571;SDS011;6857;53.484;10.216;2022-12-18T04:27:14;20.03;;;10.30;;
13571;SDS011;6857;53.484;10.216;2022-12-18T04:29:40;16.73;;;10.03;;
13571;SDS011;6857;53.484;10.216;2022-12-18T04:32:06;16.17;;;10.07;;
13571;SDS011;6857;53.484;10.216;2022-12-18T04:34:32;16.73;;;9.00;;
13571;SDS011;6857;53.484;10.216;2022-12-18T04:36:58;19.23;;;9.90;;
13571;SDS011;6857;53.484;10.216;2022-12-18T04:39:24;21.63;;;11.00;;
13571;SDS011;6857;53.484;10.216;2022-12-18T04:41:50;20.63;;;11.00;;
13571;SDS011;6857;53.484;10.216;2022-12-18T04:44:16;19.43;;;9.63;;
13571;SDS011;6857;53.484;10.216;2022-12-18T04:46:42;21.43;;;10.93;;
13571;SDS011;6857;53.484;10.216;2022-12-18T04:49:08;18.00;;;9.97;;
13571;SDS011;6857;53.484;10.216;2022-12-18T04:51:35;18.13;;;10.30;;
13571;SDS011;6857;53.484;10.216;2022-12-18T04:54:02;19.10;;;11.07;;
13571;SDS011;6857;53.484;10.216;2022-12-18T04:56:28;21.23;;;11.37;;
13571;SDS011;6857;53.484;10.216;2022-12-18T04:58:54;17.47;;;9.90;;
13571;SDS011;6857;53.484;10.216;2022-12-18T05:01:20;17.70;;;9.97;;
13571;SDS011;6857;53.484;10.216;2022-12-18T05:03:46;24.00;;;10.57;;
13571;SDS011;6857;53.484;10.216;2022-12-18T05:06:12;16.63;;;10.00;;
13571;SDS011;6857;53.484;10.216;2022-12-18T05:08:37;19.30;;;10.30;;
13571;SDS011;6857;53.484;10.216;2022-12-18T05:11:04;19.03;;;10.60;;
13571;SDS011;6857;53.484;10.216;2022-12-18T05:13:31;19.70;;;11.10;;
13571;SDS011;6857;53.484;10.216;2022-12-18T05:15:57;18.00;;;11.03;;
13571;SDS011;6857;53.484;10.216;2022-12-18T05:18:24;19.27;;;11.20;;
13571;SDS011;6857;53.484;10.216;2022-12-18T05:20:51;23.50;;;10.30;;
13571;SDS011;6857;53.484;10.216;2022-12-18T05:23:17;19.63;;;10.40;;
13571;SDS011;6857;53.484;10.216;2022-12-18T05:25:51;17.10;;;9.60;;
13571;SDS011;6857;53.484;10.216;2022-12-18T05:28:17;22.47;;;10.87;;
13571;SDS011;6857;53.484;10.216;2022-12-18T05:30:47;18.43;;;10.47;;
13571;SDS011;6857;53.484;10.216;2022-12-18T05:33:13;19.17;;;11.17;;
13571;SDS011;6857;53.484;10.216;2022-12-18T05:35:39;19.07;;;10.20;;
13571;SDS011;6857;53.484;10.216;2022-12-18T05:38:05;21.97;;;11.30;;
13571;SDS011;6857;53.484;10.216;2022-12-18T05:40:31;18.20;;;10.10;;
13571;SDS011;6857;53.484;10.216;2022-12-18T05:42:57;25.33;;;10.93;;
13571;SDS011;6857;53.484;10.216;2022-12-18T05:45:23;22.23;;;11.03;;
13571;SDS011;6857;53.484;10.216;2022-12-18T05:47:49;16.97;;;10.40;;
13571;SDS011;6857;53.484;10.216;2022-12-18T05:50:15;21.90;;;11.30;;
13571;SDS011;6857;53.484;10.216;2022-12-18T05:52:41;19.37;;;10.50;;
13571;SDS011;6857;53.484;10.216;2022-12-18T05:55:07;21.10;;;10.87;;
13571;SDS011;6857;53.484;10.216;2022-12-18T05:57:33;19.20;;;10.03;;
13571;SDS011;6857;53.484;10.216;2022-12-18T05:59:59;23.10;;;11.10;;
13571;SDS011;6857;53.484;10.216;2022-12-18T06:02:25;20.67;;;10.73;;
13571;SDS011;6857;53.484;10.216;2022-12-18T06:04:51;22.63;;;12.03;;
13571;SDS011;6857;53.484;10.216;2022-12-18T06:07:17;23.23;;;11.83;;
13571;SDS011;6857;53.484;10.216;2022-12-18T06:09:43;17.47;;;9.97;;
13571;SDS011;6857;53.484;10.216;2022-12-18T06:12:09;22.67;;;12.37;;
13571;SDS011;6857;53.484;10.216;2022-12-18T06:14:35;21.10;;;10.77;;
13571;SDS011;6857;53.484;10.216;2022-12-18T06:17:01;23.57;;;10.93;;
13571;SDS011;6857;53.484;10.216;2022-12-18T06:19:27;21.10;;;11.17;;
13571;SDS011;6857;53.484;10.216;2022-12-18T06:21:53;24.07;;;10.60;;
13571;SDS011;6857;53.484;10.216;2022-12-18T06:24:19;24.83;;;11.47;;
13571;SDS011;6857;53.484;10.216;2022-12-18T06:26:45;21.57;;;10.77;;
13571;SDS011;6857;53.484;10.216;2022-12-18T06:29:11;19.23;;;10.03;;
13571;SDS011;6857;53.484;10.216;2022-12-18T06:31:37;19.97;;;10.33;;
13571;SDS011;6857;53.484;10.216;2022-12-18T06:34:03;21.37;;;11.87;;
13571;SDS011;6857;53.484;10.216;2022-12-18T06:36:29;22.80;;;10.43;;
13571;SDS011;6857;53.484;10.216;2022-12-18T06:38:55;22.83;;;11.47;;
13571;SDS011;6857;53.484;10.216;2022-12-18T06:41:22;20.27;;;11.30;;
13571;SDS011;6857;53.484;10.216;2022-12-18T06:43:48;20.47;;;10.97;;
13571;SDS011;6857;53.484;10.216;2022-12-18T06:46:14;25.53;;;12.67;;
13571;SDS011;6857;53.484;10.216;2022-12-18T06:48:40;18.83;;;11.07;;
13571;SDS011;6857;53.484;10.216;2022-12-18T06:51:06;24.97;;;12.03;;
13571;SDS011;6857;53.484;10.216;2022-12-18T06:53:32;22.50;;;11.83;;
13571;SDS011;6857;53.484;10.216;2022-12-18T06:56:02;22.30;;;11.03;;
13571;SDS011;6857;53.484;10.216;2022-12-18T06:58:28;22.13;;;11.37;;
13571;SDS011;6857;53.484;10.216;2022-12-18T07:00:59;24.03;;;12.83;;
13571;SDS011;6857;53.484;10.216;2022-12-18T07:03:25;24.80;;;11.67;;
13571;SDS011;6857;53.484;10.216;2022-12-18T07:05:51;21.20;;;11.83;;
13571;SDS011;6857;53.484;10.216;2022-12-18T07:08:17;20.97;;;10.47;;
13571;SDS011;6857;53.484;10.216;2022-12-18T07:10:43;19.47;;;11.27;;
13571;SDS011;6857;53.484;10.216;2022-12-18T07:13:09;23.43;;;12.20;;
13571;SDS011;6857;53.484;10.216;2022-12-18T07:15:35;22.53;;;11.03;;
13571;SDS011;6857;53.484;10.216;2022-12-18T07:18:01;19.40;;;12.40;;
13571;SDS011;6857;53.484;10.216;2022-12-18T07:20:27;19.63;;;12.17;;
13571;SDS011;6857;53.484;10.216;2022-12-18T07:22:53;23.87;;;12.27;;
13571;SDS011;6857;53.484;10.216;2022-12-18T07:25:19;21.10;;;10.87;;
13571;SDS011;6857;53.484;10.216;2022-12-18T07:27:45;23.90;;;11.40;;
13571;SDS011;6857;53.484;10.216;2022-12-18T07:30:11;28.33;;;13.37;;
13571;SDS011;6857;53.484;10.216;2022-12-18T07:32:37;28.73;;;12.27;;
13571;SDS011;6857;53.484;10.216;2022-12-18T07:35:03;22.63;;;11.37;;
13571;SDS011;6857;53.484;10.216;2022-12-18T07:37:29;23.83;;;12.10;;
13571;SDS011;6857;53.484;10.216;2022-12-18T07:39:55;22.13;;;11.73;;
13571;SDS011;6857;53.484;10.216;2022-12-18T07:42:21;23.03;;;12.23;;
13571;SDS011;6857;53.484;10.216;2022-12-18T07:44:57;22.17;;;11.70;;
13571;SDS011;6857;53.484;10.216;2022-12-18T07:47:23;20.03;;;11.40;;
13571;SDS011;6857;53.484;10.216;2022-12-18T07:49:49;20.47;;;12.50;;
13571;SDS011;6857;53.484;10.216;2022-12-18T07:52:15;20.20;;;11.33;;
13571;SDS011;6857;53.484;10.216;2022-12-18T07:54:41;26.73;;;12.43;;
13571;SDS011;6857;53.484;10.216;2022-12-18T07:57:07;27.40;;;12.13;;
13571;SDS011;6857;53.484;10.216;2022-12-18T07:59:33;23.30;;;11.57;;
13571;SDS011;6857;53.484;10.216;2022-12-18T08:01:59;24.27;;;11.67;;
13571;SDS011;6857;53.484;10.216;2022-12-18T08:04:25;28.60;;;12.97;;
13571;SDS011;6857;53.484;10.216;2022-12-18T08:06:51;27.77;;;12.90;;
13571;SDS011;6857;53.484;10.216;2022-12-18T08:09:17;26.17;;;12.80;;
13571;SDS011;6857;53.484;10.216;2022-12-18T08:11:43;21.73;;;12.30;;
13571;SDS011;6857;53.484;10.216;2022-12-18T08:14:10;25.63;;;13.03;;
13571;SDS011;6857;53.484;10.216;2022-12-18T08:16:36;25.13;;;11.33;;
13571;SDS011;6857;53.484;10.216;2022-12-18T08:19:02;25.03;;;13.07;;
13571;SDS011;6857;53.484;10.216;2022-12-18T08:21:29;21.23;;;11.60;;
13571;SDS011;6857;53.484;10.216;2022-12-18T08:23:56;26.43;;;12.87;;
13571;SDS011;6857;53.484;10.216;2022-12-18T08:26:22;20.90;;;11.97;;
13571;SDS011;6857;53.484;10.216;2022-12-18T08:28:49;24.17;;;12.57;;
13571;SDS011;6857;53.484;10.216;2022-12-18T08:31:15;25.67;;;13.13;;
13571;SDS011;6857;53.484;10.216;2022-12-18T08:33:41;26.63;;;11.93;;
13571;SDS011;6857;53.484;10.216;2022-12-18T08:36:08;23.20;;;10.83;;
13571;SDS011;6857;53.484;10.216;2022-12-18T08:38:34;27.10;;;13.33;;
13571;SDS011;6857;53.484;10.216;2022-12-18T08:43:26;24.27;;;12.70;;
13571;SDS011;6857;53.484;10.216;2022-12-18T08:46:11;24.07;;;11.50;;
13571;SDS011;6857;53.484;10.216;2022-12-18T08:48:37;26.30;;;14.20;;
13571;SDS011;6857;53.484;10.216;2022-12-18T08:51:03;22.93;;;12.20;;
13571;SDS011;6857;53.484;10.216;2022-12-18T08:53:29;26.80;;;13.40;;
13571;SDS011;6857;53.484;10.216;2022-12-18T08:55:56;26.03;;;11.83;;
13571;SDS011;6857;53.484;10.216;2022-12-18T08:58:22;24.70;;;11.53;;
13571;SDS011;6857;53.484;10.216;2022-12-18T09:00:48;24.10;;;12.07;;
13571;SDS011;6857;53.484;10.216;2022-12-18T09:03:15;22.87;;;11.87;;
13571;SDS011;6857;53.484;10.216;2022-12-18T09:05:41;24.67;;;12.80;;
13571;SDS011;6857;53.484;10.216;2022-12-18T09:08:07;29.37;;;14.17;;
13571;SDS011;6857;53.484;10.216;2022-12-18T09:10:34;24.43;;;12.87;;
13571;SDS011;6857;53.484;10.216;2022-12-18T09:13:00;22.90;;;12.10;;
13571;SDS011;6857;53.484;10.216;2022-12-18T09:15:26;26.17;;;11.80;;
13571;SDS011;6857;53.484;10.216;2022-12-18T09:17:51;24.50;;;12.07;;
13571;SDS011;6857;53.484;10.216;2022-12-18T09:20:18;25.97;;;11.67;;
13571;SDS011;6857;53.484;10.216;2022-12-18T09:22:44;22.90;;;11.67;;
13571;SDS011;6857;53.484;10.216;2022-12-18T09:25:10;20.57;;;11.20;;
13571;SDS011;6857;53.484;10.216;2022-12-18T09:27:36;21.63;;;11.83;;
13571;SDS011;6857;53.484;10.216;2022-12-18T09:30:02;26.50;;;12.70;;
13571;SDS011;6857;53.484;10.216;2022-12-18T09:32:28;24.33;;;12.23;;
13571;SDS011;6857;53.484;10.216;2022-12-18T09:34:54;18.50;;;10.73;;
13571;SDS011;6857;53.484;10.216;2022-12-18T09:37:20;23.30;;;12.77;;
13571;SDS011;6857;53.484;10.216;2022-12-18T09:39:46;23.20;;;12.07;;
13571;SDS011;6857;53.484;10.216;2022-12-18T09:42:14;25.27;;;12.50;;
13571;SDS011;6857;53.484;10.216;2022-12-18T09:44:44;22.27;;;12.27;;
13571;SDS011;6857;53.484;10.216;2022-12-18T09:47:45;24.43;;;12.40;;
13571;SDS011;6857;53.484;10.216;2022-12-18T09:50:05;20.50;;;11.43;;
13571;SDS011;6857;53.484;10.216;2022-12-18T09:52:43;21.20;;;11.77;;
13571;SDS011;6857;53.484;10.216;2022-12-18T09:55:33;22.00;;;11.90;;
13571;SDS011;6857;53.484;10.216;2022-12-18T09:58:05;24.87;;;13.53;;
13571;SDS011;6857;53.484;10.216;2022-12-18T10:00:32;20.23;;;11.20;;
13571;SDS011;6857;53.484;10.216;2022-12-18T10:02:59;19.97;;;11.20;;
13571;SDS011;6857;53.484;10.216;2022-12-18T10:05:33;22.83;;;11.40;;
13571;SDS011;6857;53.484;10.216;2022-12-18T10:08:05;24.13;;;11.50;;
13571;SDS011;6857;53.484;10.216;2022-12-18T10:16:03;22.67;;;12.33;;
13571;SDS011;6857;53.484;10.216;2022-12-18T10:18:42;20.70;;;11.03;;
13571;SDS011;6857;53.484;10.216;2022-12-18T10:21:15;25.20;;;11.90;;
13571;SDS011;6857;53.484;10.216;2022-12-18T10:23:50;23.63;;;12.67;;
13571;SDS011;6857;53.484;10.216;2022-12-18T10:26:20;21.97;;;11.57;;
13571;SDS011;6857;53.484;10.216;2022-12-18T10:28:46;23.43;;;11.63;;
13571;SDS011;6857;53.484;10.216;2022-12-18T10:31:16;24.33;;;12.03;;
13571;SDS011;6857;53.484;10.216;2022-12-18T10:33:42;38.60;;;21.30;;
13571;SDS011;6857;53.484;10.216;2022-12-18T10:36:09;28.27;;;16.77;;
13571;SDS011;6857;53.484;10.216;2022-12-18T10:38:35;23.67;;;12.30;;
13571;SDS011;6857;53.484;10.216;2022-12-18T10:41:02;24.07;;;11.93;;
13571;SDS011;6857;53.484;10.216;2022-12-18T10:43:36;22.90;;;12.13;;
13571;SDS011;6857;53.484;10.216;2022-12-18T10:54:06;21.83;;;12.33;;
13571;SDS011;6857;53.484;10.216;2022-12-18T10:56:35;26.77;;;12.90;;
13571;SDS011;6857;53.484;10.216;2022-12-18T10:59:03;23.60;;;13.07;;
13571;SDS011;6857;53.484;10.216;2022-12-18T11:01:49;25.87;;;13.23;;
13571;SDS011;6857;53.484;10.216;2022-12-18T11:04:17;26.00;;;13.03;;
13571;SDS011;6857;53.484;10.216;2022-12-18T11:06:57;24.73;;;13.60;;
13571;SDS011;6857;53.484;10.216;2022-12-18T11:09:24;29.40;;;13.33;;
13571;SDS011;6857;53.484;10.216;2022-12-18T11:11:51;29.13;;;15.93;;
13571;SDS011;6857;53.484;10.216;2022-12-18T11:14:22;24.53;;;13.10;;
13571;SDS011;6857;53.484;10.216;2022-12-18T11:16:48;24.23;;;12.43;;
13571;SDS011;6857;53.484;10.216;2022-12-18T11:19:25;29.33;;;13.77;;
13571;SDS011;6857;53.484;10.216;2022-12-18T11:21:51;24.37;;;12.43;;
13571;SDS011;6857;53.484;10.216;2022-12-18T11:24:19;24.10;;;13.17;;
13571;SDS011;6857;53.484;10.216;2022-12-18T11:26:46;25.97;;;13.10;;
13571;SDS011;6857;53.484;10.216;2022-12-18T11:29:16;26.50;;;13.57;;
13571;SDS011;6857;53.484;10.216;2022-12-18T11:31:42;25.57;;;13.60;;
13571;SDS011;6857;53.484;10.216;2022-12-18T11:36:39;24.43;;;13.23;;
13571;SDS011;6857;53.484;10.216;2022-12-18T11:39:10;26.17;;;13.73;;
13571;SDS011;6857;53.484;10.216;2022-12-18T11:41:45;26.30;;;13.17;;
13571;SDS011;6857;53.484;10.216;2022-12-18T11:44:34;21.43;;;12.27;;
13571;SDS011;6857;53.484;10.216;2022-12-18T11:47:03;22.90;;;13.30;;
13571;SDS011;6857;53.484;10.216;2022-12-18T11:49:34;22.53;;;12.07;;
13571;SDS011;6857;53.484;10.216;2022-12-18T11:52:13;24.13;;;12.27;;
13571;SDS011;6857;53.484;10.216;2022-12-18T11:54:41;30.20;;;13.63;;
13571;SDS011;6857;53.484;10.216;2022-12-18T11:57:17;19.93;;;11.40;;
13571;SDS011;6857;53.484;10.216;2022-12-18T12:02:38;25.83;;;12.27;;
13571;SDS011;6857;53.484;10.216;2022-12-18T12:05:16;26.73;;;12.63;;
13571;SDS011;6857;53.484;10.216;2022-12-18T12:16:06;25.77;;;13.90;;
13571;SDS011;6857;53.484;10.216;2022-12-18T12:21:11;23.13;;;12.27;;
13571;SDS011;6857;53.484;10.216;2022-12-18T12:23:47;26.30;;;12.33;;
13571;SDS011;6857;53.484;10.216;2022-12-18T12:27:03;23.27;;;12.50;;
13571;SDS011;6857;53.484;10.216;2022-12-18T12:29:13;21.93;;;11.43;;
13571;SDS011;6857;53.484;10.216;2022-12-18T12:36:46;23.27;;;14.03;;
13571;SDS011;6857;53.484;10.216;2022-12-18T12:39:15;23.30;;;11.90;;
13571;SDS011;6857;53.484;10.216;2022-12-18T12:41:43;25.50;;;11.67;;
13571;SDS011;6857;53.484;10.216;2022-12-18T12:44:33;24.67;;;13.20;;
13571;SDS011;6857;53.484;10.216;2022-12-18T12:47:01;22.70;;;11.63;;
13571;SDS011;6857;53.484;10.216;2022-12-18T12:49:30;22.57;;;11.10;;
13571;SDS011;6857;53.484;10.216;2022-12-18T12:52:15;22.03;;;10.67;;
13571;SDS011;6857;53.484;10.216;2022-12-18T12:54:42;21.37;;;10.47;;
13571;SDS011;6857;53.484;10.216;2022-12-18T12:57:21;19.67;;;11.57;;
13571;SDS011;6857;53.484;10.216;2022-12-18T13:02:21;24.43;;;11.47;;
13571;SDS011;6857;53.484;10.216;2022-12-18T13:05:33;22.17;;;10.23;;
13571;SDS011;6857;53.484;10.216;2022-12-18T13:07:38;24.80;;;11.13;;
13571;SDS011;6857;53.484;10.216;2022-12-18T13:13:06;20.17;;;11.03;;
13571;SDS011;6857;53.484;10.216;2022-12-18T13:15:39;44.57;;;22.00;;
13571;SDS011;6857;53.484;10.216;2022-12-18T13:23:04;24.23;;;11.07;;
13571;SDS011;6857;53.484;10.216;2022-12-18T13:25:44;27.00;;;13.77;;
13571;SDS011;6857;53.484;10.216;2022-12-18T13:28:14;21.33;;;11.43;;
13571;SDS011;6857;53.484;10.216;2022-12-18T13:30:41;28.00;;;14.23;;
13571;SDS011;6857;53.484;10.216;2022-12-18T13:38:45;22.70;;;11.67;;
13571;SDS011;6857;53.484;10.216;2022-12-18T13:41:14;23.53;;;11.03;;
13571;SDS011;6857;53.484;10.216;2022-12-18T13:43:47;27.63;;;12.30;;
13571;SDS011;6857;53.484;10.216;2022-12-18T13:49:05;25.03;;;12.27;;
13571;SDS011;6857;53.484;10.216;2022-12-18T13:51:34;28.33;;;13.17;;
13571;SDS011;6857;53.484;10.216;2022-12-18T13:56:46;26.23;;;11.77;;
13571;SDS011;6857;53.484;10.216;2022-12-18T14:01:49;25.47;;;12.63;;
13571;SDS011;6857;53.484;10.216;2022-12-18T14:04:18;24.07;;;11.57;;
13571;SDS011;6857;53.484;10.216;2022-12-18T14:06:45;29.43;;;12.50;;
13571;SDS011;6857;53.484;10.216;2022-12-18T14:09:15;25.17;;;13.03;;
13571;SDS011;6857;53.484;10.216;2022-12-18T14:11:46;22.83;;;11.37;;
13571;SDS011;6857;53.484;10.216;2022-12-18T14:14:13;30.20;;;13.87;;
13571;SDS011;6857;53.484;10.216;2022-12-18T14:16:40;31.83;;;14.20;;
13571;SDS011;6857;53.484;10.216;2022-12-18T14:19:08;29.33;;;13.53;;
13571;SDS011;6857;53.484;10.216;2022-12-18T14:21:36;28.83;;;13.20;;
13571;SDS011;6857;53.484;10.216;2022-12-18T14:24:03;30.40;;;13.20;;
13571;SDS011;6857;53.484;10.216;2022-12-18T14:26:30;25.83;;;12.10;;
13571;SDS011;6857;53.484;10.216;2022-12-18T14:28:58;28.63;;;13.90;;
13571;SDS011;6857;53.484;10.216;2022-12-18T14:31:26;31.77;;;14.63;;
13571;SDS011;6857;53.484;10.216;2022-12-18T14:33:53;31.20;;;13.50;;
13571;SDS011;6857;53.484;10.216;2022-12-18T14:36:20;28.63;;;13.40;;
13571;SDS011;6857;53.484;10.216;2022-12-18T14:38:52;34.47;;;15.33;;
13571;SDS011;6857;53.484;10.216;2022-12-18T14:41:33;29.97;;;13.97;;
13571;SDS011;6857;53.484;10.216;2022-12-18T14:44:05;32.73;;;14.87;;
13571;SDS011;6857;53.484;10.216;2022-12-18T14:48:58;27.10;;;14.23;;
13571;SDS011;6857;53.484;10.216;2022-12-18T14:51:26;28.13;;;13.60;;
13571;SDS011;6857;53.484;10.216;2022-12-18T14:53:57;28.87;;;14.63;;
13571;SDS011;6857;53.484;10.216;2022-12-18T14:56:24;31.03;;;14.87;;
13571;SDS011;6857;53.484;10.216;2022-12-18T14:58:54;32.70;;;14.83;;
13571;SDS011;6857;53.484;10.216;2022-12-18T15:01:28;33.07;;;14.93;;
13571;SDS011;6857;53.484;10.216;2022-12-18T15:03:55;33.13;;;14.83;;
13571;SDS011;6857;53.484;10.216;2022-12-18T15:06:24;31.50;;;14.30;;
13571;SDS011;6857;53.484;10.216;2022-12-18T15:08:51;26.17;;;13.43;;
13571;SDS011;6857;53.484;10.216;2022-12-18T15:11:43;32.30;;;14.80;;
13571;SDS011;6857;53.484;10.216;2022-12-18T15:17:18;32.17;;;15.27;;
13571;SDS011;6857;53.484;10.216;2022-12-18T15:19:45;37.87;;;18.20;;
13571;SDS011;6857;53.484;10.216;2022-12-18T15:22:19;34.57;;;16.33;;
13571;SDS011;6857;53.484;10.216;2022-12-18T15:24:45;30.70;;;14.57;;
13571;SDS011;6857;53.484;10.216;2022-12-18T15:27:25;32.73;;;14.60;;
13571;SDS011;6857;53.484;10.216;2022-12-18T15:32:33;35.50;;;14.53;;
13571;SDS011;6857;53.484;10.216;2022-12-18T15:37:35;30.47;;;13.80;;
13571;SDS011;6857;53.484;10.216;2022-12-18T15:40:02;30.63;;;13.83;;
13571;SDS011;6857;53.484;10.216;2022-12-18T15:42:28;31.30;;;13.93;;
13571;SDS011;6857;53.484;10.216;2022-12-18T15:45:13;33.07;;;14.30;;
13571;SDS011;6857;53.484;10.216;2022-12-18T15:47:39;25.67;;;12.47;;
13571;SDS011;6857;53.484;10.216;2022-12-18T15:50:06;27.70;;;13.60;;
13571;SDS011;6857;53.484;10.216;2022-12-18T15:52:34;28.87;;;14.07;;
13571;SDS011;6857;53.484;10.216;2022-12-18T15:55:05;31.60;;;14.60;;
13571;SDS011;6857;53.484;10.216;2022-12-18T15:57:50;28.37;;;12.93;;
13571;SDS011;6857;53.484;10.216;2022-12-18T16:00:16;28.20;;;12.10;;
13571;SDS011;6857;53.484;10.216;2022-12-18T16:02:42;28.53;;;14.57;;
13571;SDS011;6857;53.484;10.216;2022-12-18T16:05:14;32.30;;;14.97;;
13571;SDS011;6857;53.484;10.216;2022-12-18T16:07:41;28.57;;;13.07;;